Terminal Aerodrome Forecast
Issued by NWS South Bend, IN

Current Version | Previous Version | Text Only | Print | Product List | Glossary On
Versions: 1 2 3 4 5 6 7 8 9 10 11 12 13 14 15 16
000
FTUS43 KIWX 050500
TAFSBN
TAF
KSBN 050536Z 0506/0606 08005KT P6SM SCT040 OVC080
     FM050830 10008KT 6SM -SHRA BR OVC040
      TEMPO 0509/0513 4SM TSRA BR OVC030CB
     FM051300 10007KT 4SM -SHRA BR OVC020
     FM051600 14010KT 5SM -SHRA BR OVC015
     FM052200 10006KT P6SM OVC020=

USA.gov is the U.S. government's official web portal to all federal, state and local government web resources and services.